sensor_id;sensor_type;location;lat;lon;timestamp;pressure;altitude;pressure_sealevel;temperature;humidity
51849;BME280;38952;51.090;-1.832;2022-10-31T00:00:51;100379.41;;;11.94;100.00
51849;BME280;38952;51.090;-1.832;2022-10-31T00:03:17;100375.56;;;12.00;100.00
51849;BME280;38952;51.090;-1.832;2022-10-31T00:05:47;100376.13;;;11.97;100.00
51849;BME280;38952;51.090;-1.832;2022-10-31T00:08:13;100370.09;;;12.00;99.70
51849;BME280;38952;51.090;-1.832;2022-10-31T00:10:40;100384.06;;;12.09;99.50
51849;BME280;38952;51.090;-1.832;2022-10-31T00:13:07;100382.94;;;12.10;99.18
51849;BME280;38952;51.090;-1.832;2022-10-31T00:15:38;100380.72;;;12.17;99.21
51849;BME280;38952;51.090;-1.832;2022-10-31T00:18:06;100390.31;;;12.20;98.60
51849;BME280;38952;51.090;-1.832;2022-10-31T00:20:32;100382.63;;;12.22;98.71
51849;BME280;38952;51.090;-1.832;2022-10-31T00:22:58;100380.97;;;12.26;98.10
51849;BME280;38952;51.090;-1.832;2022-10-31T00:25:24;100378.25;;;12.26;98.29
51849;BME280;38952;51.090;-1.832;2022-10-31T00:27:50;100364.56;;;12.21;98.43
51849;BME280;38952;51.090;-1.832;2022-10-31T00:30:16;100366.19;;;12.22;98.42
51849;BME280;38952;51.090;-1.832;2022-10-31T00:32:41;100361.78;;;12.26;98.40
51849;BME280;38952;51.090;-1.832;2022-10-31T00:35:07;100355.22;;;12.27;98.00
51849;BME280;38952;51.090;-1.832;2022-10-31T00:37:32;100354.66;;;12.30;97.96
51849;BME280;38952;51.090;-1.832;2022-10-31T00:39:58;100353.28;;;12.28;97.98
51849;BME280;38952;51.090;-1.832;2022-10-31T00:42:24;100357.97;;;12.27;97.76
51849;BME280;38952;51.090;-1.832;2022-10-31T00:44:49;100354.13;;;12.28;97.46
51849;BME280;38952;51.090;-1.832;2022-10-31T00:47:15;100351.38;;;12.23;97.97
51849;BME280;38952;51.090;-1.832;2022-10-31T00:49:40;100360.16;;;12.20;97.92
51849;BME280;38952;51.090;-1.832;2022-10-31T00:52:06;100348.41;;;12.19;97.89
51849;BME280;38952;51.090;-1.832;2022-10-31T00:54:31;100353.84;;;12.25;97.78
51849;BME280;38952;51.090;-1.832;2022-10-31T00:56:57;100342.06;;;12.24;97.80
51849;BME280;38952;51.090;-1.832;2022-10-31T00:59:23;100348.63;;;12.28;97.54
51849;BME280;38952;51.090;-1.832;2022-10-31T01:01:48;100346.44;;;12.30;96.89
51849;BME280;38952;51.090;-1.832;2022-10-31T01:04:14;100356.84;;;12.33;97.28
51849;BME280;38952;51.090;-1.832;2022-10-31T01:06:39;100355.19;;;12.32;97.01
51849;BME280;38952;51.090;-1.832;2022-10-31T01:09:05;100352.97;;;12.39;97.57
51849;BME280;38952;51.090;-1.832;2022-10-31T01:11:30;100347.47;;;12.39;96.87
51849;BME280;38952;51.090;-1.832;2022-10-31T01:13:56;100339.00;;;12.36;96.84
51849;BME280;38952;51.090;-1.832;2022-10-31T01:16:42;100343.09;;;12.44;96.59
51849;BME280;38952;51.090;-1.832;2022-10-31T01:19:08;100344.19;;;12.43;96.26
51849;BME280;38952;51.090;-1.832;2022-10-31T01:21:33;100326.09;;;12.36;96.62
51849;BME280;38952;51.090;-1.832;2022-10-31T01:23:59;100347.75;;;12.43;96.41
51849;BME280;38952;51.090;-1.832;2022-10-31T01:26:29;100344.75;;;12.39;96.66
51849;BME280;38952;51.090;-1.832;2022-10-31T01:29:07;100351.31;;;12.44;96.82
51849;BME280;38952;51.090;-1.832;2022-10-31T01:31:37;100348.03;;;12.42;96.48
51849;BME280;38952;51.090;-1.832;2022-10-31T01:34:03;100347.19;;;12.46;96.33
51849;BME280;38952;51.090;-1.832;2022-10-31T01:36:31;100356.22;;;12.47;96.49
51849;BME280;38952;51.090;-1.832;2022-10-31T01:39:00;100341.44;;;12.48;96.21
51849;BME280;38952;51.090;-1.832;2022-10-31T01:41:29;100356.22;;;12.47;96.67
51849;BME280;38952;51.090;-1.832;2022-10-31T01:46:48;100360.09;;;12.46;96.67
51849;BME280;38952;51.090;-1.832;2022-10-31T01:49:24;100348.59;;;12.38;97.08
51849;BME280;38952;51.090;-1.832;2022-10-31T01:51:58;100352.69;;;12.41;96.65
51849;BME280;38952;51.090;-1.832;2022-10-31T01:54:30;100337.09;;;12.31;96.88
51849;BME280;38952;51.090;-1.832;2022-10-31T01:56:57;100347.78;;;12.33;97.10
51849;BME280;38952;51.090;-1.832;2022-10-31T01:59:26;100342.06;;;12.24;97.34
51849;BME280;38952;51.090;-1.832;2022-10-31T02:01:53;100344.81;;;12.19;97.41
51849;BME280;38952;51.090;-1.832;2022-10-31T02:04:19;100337.16;;;12.16;97.66
51849;BME280;38952;51.090;-1.832;2022-10-31T02:07:00;100342.66;;;12.11;98.20
51849;BME280;38952;51.090;-1.832;2022-10-31T02:09:29;100333.34;;;12.07;98.84
51849;BME280;38952;51.090;-1.832;2022-10-31T02:11:57;100339.38;;;11.98;98.62
51849;BME280;38952;51.090;-1.832;2022-10-31T02:14:26;100336.69;;;11.93;99.42
51849;BME280;38952;51.090;-1.832;2022-10-31T02:16:53;100334.75;;;11.88;99.67
51849;BME280;38952;51.090;-1.832;2022-10-31T02:19:36;100337.72;;;11.87;99.63
51849;BME280;38952;51.090;-1.832;2022-10-31T02:22:16;100336.09;;;11.86;100.00
51849;BME280;38952;51.090;-1.832;2022-10-31T02:40:56;100345.97;;;11.77;100.00
51849;BME280;38952;51.090;-1.832;2022-10-31T02:43:37;100339.13;;;11.74;100.00
51849;BME280;38952;51.090;-1.832;2022-10-31T02:46:13;100328.97;;;11.69;100.00
51849;BME280;38952;51.090;-1.832;2022-10-31T02:48:43;100345.16;;;11.76;100.00
51849;BME280;38952;51.090;-1.832;2022-10-31T02:51:10;100341.03;;;11.79;100.00
51849;BME280;38952;51.090;-1.832;2022-10-31T02:53:37;100334.47;;;11.80;100.00
51849;BME280;38952;51.090;-1.832;2022-10-31T02:56:11;100341.88;;;11.84;100.00
51849;BME280;38952;51.090;-1.832;2022-10-31T02:58:48;100333.34;;;11.81;100.00
51849;BME280;38952;51.090;-1.832;2022-10-31T03:04:27;100330.63;;;11.86;100.00
51849;BME280;38952;51.090;-1.832;2022-10-31T03:07:37;100322.94;;;11.98;100.00
51849;BME280;38952;51.090;-1.832;2022-10-31T03:10:14;100319.03;;;12.20;100.00
51849;BME280;38952;51.090;-1.832;2022-10-31T03:13:05;100303.66;;;12.34;100.00
51849;BME280;38952;51.090;-1.832;2022-10-31T03:15:37;100303.59;;;12.45;100.00
51849;BME280;38952;51.090;-1.832;2022-10-31T03:18:08;100289.03;;;12.49;100.00
51849;BME280;38952;51.090;-1.832;2022-10-31T03:21:01;100292.06;;;12.48;100.00
51849;BME280;38952;51.090;-1.832;2022-10-31T03:23:24;100287.44;;;12.43;100.00
51849;BME280;38952;51.090;-1.832;2022-10-31T03:25:53;100290.97;;;12.44;100.00
51849;BME280;38952;51.090;-1.832;2022-10-31T03:28:29;100290.13;;;12.53;100.00
51849;BME280;38952;51.090;-1.832;2022-10-31T03:30:58;100277.75;;;12.56;100.00
51849;BME280;38952;51.090;-1.832;2022-10-31T03:33:28;100289.53;;;12.62;100.00
51849;BME280;38952;51.090;-1.832;2022-10-31T03:35:58;100282.63;;;12.64;99.53
51849;BME280;38952;51.090;-1.832;2022-10-31T03:38:26;100288.09;;;12.69;99.55
51849;BME280;38952;51.090;-1.832;2022-10-31T03:40:54;100274.97;;;12.66;99.28
51849;BME280;38952;51.090;-1.832;2022-10-31T03:43:24;100287.53;;;12.78;99.14
51849;BME280;38952;51.090;-1.832;2022-10-31T03:45:52;100289.75;;;12.70;98.71
51849;BME280;38952;51.090;-1.832;2022-10-31T03:48:19;100281.53;;;12.65;99.12
51849;BME280;38952;51.090;-1.832;2022-10-31T03:56:45;100285.88;;;12.71;99.09
51849;BME280;38952;51.090;-1.832;2022-10-31T04:01:55;100283.19;;;12.66;98.76
51849;BME280;38952;51.090;-1.832;2022-10-31T04:04:22;100276.91;;;12.61;99.30
51849;BME280;38952;51.090;-1.832;2022-10-31T04:06:50;100279.94;;;12.59;99.65
51849;BME280;38952;51.090;-1.832;2022-10-31T04:09:19;100291.22;;;12.52;99.53
51849;BME280;38952;51.090;-1.832;2022-10-31T04:11:52;100277.25;;;12.49;100.00
51849;BME280;38952;51.090;-1.832;2022-10-31T04:14:18;100275.31;;;12.54;100.00
51849;BME280;38952;51.090;-1.832;2022-10-31T04:16:44;100268.47;;;12.52;99.76
51849;BME280;38952;51.090;-1.832;2022-10-31T04:19:10;100275.09;;;12.46;100.00
51849;BME280;38952;51.090;-1.832;2022-10-31T04:21:36;100266.63;;;12.37;100.00
51849;BME280;38952;51.090;-1.832;2022-10-31T04:24:02;100267.19;;;12.29;100.00
51849;BME280;38952;51.090;-1.832;2022-10-31T04:26:27;100266.66;;;12.27;100.00
51849;BME280;38952;51.090;-1.832;2022-10-31T04:28:52;100263.66;;;12.23;100.00
51849;BME280;38952;51.090;-1.832;2022-10-31T04:31:18;100264.75;;;12.22;100.00
51849;BME280;38952;51.090;-1.832;2022-10-31T04:33:43;100269.72;;;12.15;100.00
51849;BME280;38952;51.090;-1.832;2022-10-31T04:36:09;100262.38;;;12.05;100.00
51849;BME280;38952;51.090;-1.832;2022-10-31T04:38:34;100265.94;;;12.00;100.00
51849;BME280;38952;51.090;-1.832;2022-10-31T04:41:00;100263.78;;;11.97;100.00
51849;BME280;38952;51.090;-1.832;2022-10-31T04:43:25;100267.56;;;11.91;100.00
51849;BME280;38952;51.090;-1.832;2022-10-31T04:45:50;100261.56;;;11.94;100.00
51849;BME280;38952;51.090;-1.832;2022-10-31T04:48:16;100260.47;;;11.90;100.00
51849;BME280;38952;51.090;-1.832;2022-10-31T04:50:42;100257.19;;;11.88;100.00
51849;BME280;38952;51.090;-1.832;2022-10-31T04:53:07;100263.50;;;11.78;100.00
51849;BME280;38952;51.090;-1.832;2022-10-31T04:55:35;100261.88;;;11.77;100.00
51849;BME280;38952;51.090;-1.832;2022-10-31T04:58:00;100257.78;;;11.80;100.00
51849;BME280;38952;51.090;-1.832;2022-10-31T05:00:25;100254.75;;;11.76;100.00
51849;BME280;38952;51.090;-1.832;2022-10-31T05:02:53;100250.09;;;11.72;100.00
51849;BME280;38952;51.090;-1.832;2022-10-31T05:05:22;100258.31;;;11.72;100.00
51849;BME280;38952;51.090;-1.832;2022-10-31T05:07:49;100246.28;;;11.67;100.00
51849;BME280;38952;51.090;-1.832;2022-10-31T05:10:20;100246.28;;;11.67;100.00
51849;BME280;38952;51.090;-1.832;2022-10-31T05:12:51;100245.75;;;11.65;100.00
51849;BME280;38952;51.090;-1.832;2022-10-31T05:15:18;100249.53;;;11.69;100.00
51849;BME280;38952;51.090;-1.832;2022-10-31T05:17:43;100238.34;;;11.71;100.00
51849;BME280;38952;51.090;-1.832;2022-10-31T05:20:13;100238.88;;;11.73;100.00
51849;BME280;38952;51.090;-1.832;2022-10-31T05:22:47;100243.50;;;11.78;100.00
51849;BME280;38952;51.090;-1.832;2022-10-31T05:25:13;100249.56;;;11.80;100.00
51849;BME280;38952;51.090;-1.832;2022-10-31T05:27:44;100250.09;;;11.77;100.00
51849;BME280;38952;51.090;-1.832;2022-10-31T05:30:12;100241.88;;;11.72;100.00
51849;BME280;38952;51.090;-1.832;2022-10-31T05:32:38;100251.19;;;11.70;100.00
51849;BME280;38952;51.090;-1.832;2022-10-31T05:35:05;100244.06;;;11.75;100.00
51849;BME280;38952;51.090;-1.832;2022-10-31T05:37:33;100241.34;;;11.75;100.00
51849;BME280;38952;51.090;-1.832;2022-10-31T05:39:58;100244.59;;;11.77;100.00
51849;BME280;38952;51.090;-1.832;2022-10-31T05:42:23;100246.28;;;11.73;100.00
51849;BME280;38952;51.090;-1.832;2022-10-31T05:44:49;100233.13;;;11.69;100.00
51849;BME280;38952;51.090;-1.832;2022-10-31T05:47:14;100234.22;;;11.63;100.00
51849;BME280;38952;51.090;-1.832;2022-10-31T05:49:39;100232.88;;;11.61;100.00
51849;BME280;38952;51.090;-1.832;2022-10-31T05:52:05;100230.69;;;11.58;100.00
51849;BME280;38952;51.090;-1.832;2022-10-31T05:54:30;100230.44;;;11.49;100.00
51849;BME280;38952;51.090;-1.832;2022-10-31T05:56:56;100221.69;;;11.42;100.00
51849;BME280;38952;51.090;-1.832;2022-10-31T05:59:21;100220.63;;;11.38;100.00
51849;BME280;38952;51.090;-1.832;2022-10-31T06:01:46;100218.41;;;11.34;100.00
51849;BME280;38952;51.090;-1.832;2022-10-31T06:04:12;100217.88;;;11.38;100.00
51849;BME280;38952;51.090;-1.832;2022-10-31T06:06:37;100220.88;;;11.41;100.00
51849;BME280;38952;51.090;-1.832;2022-10-31T06:09:03;100217.28;;;11.46;100.00
51849;BME280;38952;51.090;-1.832;2022-10-31T06:11:28;100215.13;;;11.48;100.00
51849;BME280;38952;51.090;-1.832;2022-10-31T06:13:54;100213.47;;;11.47;100.00
51849;BME280;38952;51.090;-1.832;2022-10-31T06:16:19;100199.25;;;11.45;100.00
51849;BME280;38952;51.090;-1.832;2022-10-31T06:18:45;100205.81;;;11.44;100.00
51849;BME280;38952;51.090;-1.832;2022-10-31T06:21:11;100206.63;;;11.49;100.00
51849;BME280;38952;51.090;-1.832;2022-10-31T06:23:36;100208.00;;;11.47;100.00
51849;BME280;38952;51.090;-1.832;2022-10-31T06:26:02;100193.22;;;11.48;100.00
51849;BME280;38952;51.090;-1.832;2022-10-31T06:28:27;100197.88;;;11.37;100.00
51849;BME280;38952;51.090;-1.832;2022-10-31T06:30:52;100191.59;;;11.37;100.00
51849;BME280;38952;51.090;-1.832;2022-10-31T06:33:18;100199.25;;;11.45;100.00
51849;BME280;38952;51.090;-1.832;2022-10-31T06:35:47;100187.44;;;11.49;100.00
51849;BME280;38952;51.090;-1.832;2022-10-31T06:38:13;100194.81;;;11.59;100.00
51849;BME280;38952;51.090;-1.832;2022-10-31T06:40:38;100192.59;;;11.72;100.00
51849;BME280;38952;51.090;-1.832;2022-10-31T06:43:04;100188.72;;;11.83;100.00
51849;BME280;38952;51.090;-1.832;2022-10-31T06:45:29;100190.34;;;11.84;100.00
51849;BME280;38952;51.090;-1.832;2022-10-31T06:47:55;100184.59;;;11.80;100.00
51849;BME280;38952;51.090;-1.832;2022-10-31T06:50:21;100184.91;;;11.74;100.00
51849;BME280;38952;51.090;-1.832;2022-10-31T06:52:56;100190.13;;;11.70;100.00
51849;BME280;38952;51.090;-1.832;2022-10-31T06:55:22;100184.94;;;11.63;100.00
51849;BME280;38952;51.090;-1.832;2022-10-31T06:57:53;100183.03;;;11.59;100.00
51849;BME280;38952;51.090;-1.832;2022-10-31T07:00:19;100179.22;;;11.60;100.00
51849;BME280;38952;51.090;-1.832;2022-10-31T07:02:59;100184.94;;;11.63;100.00
51849;BME280;38952;51.090;-1.832;2022-10-31T07:05:25;100180.00;;;11.60;100.00
51849;BME280;38952;51.090;-1.832;2022-10-31T07:07:56;100179.78;;;11.57;100.00
51849;BME280;38952;51.090;-1.832;2022-10-31T07:10:23;100186.59;;;11.59;100.00
51849;BME280;38952;51.090;-1.832;2022-10-31T07:12:48;100181.66;;;11.56;100.00
51849;BME280;38952;51.090;-1.832;2022-10-31T07:15:18;100180.56;;;11.57;100.00
51849;BME280;38952;51.090;-1.832;2022-10-31T07:17:44;100189.31;;;11.59;100.00
51849;BME280;38952;51.090;-1.832;2022-10-31T07:20:09;100193.16;;;11.68;100.00
51849;BME280;38952;51.090;-1.832;2022-10-31T07:22:36;100198.03;;;11.82;100.00
51849;BME280;38952;51.090;-1.832;2022-10-31T07:25:02;100185.69;;;11.95;100.00
51849;BME280;38952;51.090;-1.832;2022-10-31T07:27:27;100204.47;;;12.17;100.00
51849;BME280;38952;51.090;-1.832;2022-10-31T07:29:53;100196.16;;;12.32;100.00
51849;BME280;38952;51.090;-1.832;2022-10-31T07:32:18;100194.13;;;12.48;100.00
51849;BME280;38952;51.090;-1.832;2022-10-31T07:34:43;100191.59;;;12.57;100.00
51849;BME280;38952;51.090;-1.832;2022-10-31T07:37:09;100180.56;;;12.67;100.00
51849;BME280;38952;51.090;-1.832;2022-10-31T07:39:34;100198.50;;;12.89;100.00
51849;BME280;38952;51.090;-1.832;2022-10-31T07:42:00;100199.56;;;12.93;100.00
51849;BME280;38952;51.090;-1.832;2022-10-31T07:44:25;100192.72;;;12.90;100.00
51849;BME280;38952;51.090;-1.832;2022-10-31T07:46:51;100195.25;;;12.87;100.00
51849;BME280;38952;51.090;-1.832;2022-10-31T07:49:16;100193.31;;;12.87;100.00
51849;BME280;38952;51.090;-1.832;2022-10-31T07:51:41;100189.50;;;12.83;100.00
51849;BME280;38952;51.090;-1.832;2022-10-31T07:54:07;100189.75;;;12.87;100.00
51849;BME280;38952;51.090;-1.832;2022-10-31T07:56:32;100180.66;;;12.91;100.00
51849;BME280;38952;51.090;-1.832;2022-10-31T07:58:58;100189.31;;;13.04;100.00
51849;BME280;38952;51.090;-1.832;2022-10-31T08:01:24;100186.88;;;13.32;100.00
51849;BME280;38952;51.090;-1.832;2022-10-31T08:03:49;100183.69;;;13.49;100.00
51849;BME280;38952;51.090;-1.832;2022-10-31T08:06:15;100183.59;;;13.59;100.00
51849;BME280;38952;51.090;-1.832;2022-10-31T08:08:40;100183.47;;;13.69;99.54
51849;BME280;38952;51.090;-1.832;2022-10-31T08:11:06;100188.84;;;13.79;98.45
51849;BME280;38952;51.090;-1.832;2022-10-31T08:13:31;100189.78;;;13.94;97.72
51849;BME280;38952;51.090;-1.832;2022-10-31T08:15:57;100174.94;;;14.33;97.71
51849;BME280;38952;51.090;-1.832;2022-10-31T08:18:28;100181.16;;;15.57;95.05
51849;BME280;38952;51.090;-1.832;2022-10-31T08:20:54;100175.97;;;16.70;86.84
51849;BME280;38952;51.090;-1.832;2022-10-31T08:23:22;100176.44;;;17.08;82.81
51849;BME280;38952;51.090;-1.832;2022-10-31T08:25:47;100168.72;;;17.28;80.86
51849;BME280;38952;51.090;-1.832;2022-10-31T08:28:16;100175.56;;;17.71;78.90
51849;BME280;38952;51.090;-1.832;2022-10-31T08:30:41;100174.59;;;18.59;75.23
51849;BME280;38952;51.090;-1.832;2022-10-31T08:33:13;100165.47;;;19.50;71.41
51849;BME280;38952;51.090;-1.832;2022-10-31T08:35:39;100177.13;;;19.73;68.36
51849;BME280;38952;51.090;-1.832;2022-10-31T08:38:05;100171.78;;;19.59;69.26
51849;BME280;38952;51.090;-1.832;2022-10-31T08:40:32;100174.00;;;19.83;67.93
51849;BME280;38952;51.090;-1.832;2022-10-31T08:43:06;100165.78;;;20.38;65.11
51849;BME280;38952;51.090;-1.832;2022-10-31T08:45:34;100166.13;;;21.12;62.02
51849;BME280;38952;51.090;-1.832;2022-10-31T08:48:01;100159.38;;;21.59;59.46
51849;BME280;38952;51.090;-1.832;2022-10-31T08:50:28;100159.16;;;21.64;59.11
51849;BME280;38952;51.090;-1.832;2022-10-31T08:52:53;100158.50;;;21.46;59.12
51849;BME280;38952;51.090;-1.832;2022-10-31T08:55:24;100151.63;;;21.06;59.98
51849;BME280;38952;51.090;-1.832;2022-10-31T08:57:56;100161.91;;;21.76;58.73
51849;BME280;38952;51.090;-1.832;2022-10-31T09:00:22;100151.03;;;21.84;57.61
51849;BME280;38952;51.090;-1.832;2022-10-31T09:02:54;100160.75;;;21.65;58.27
51849;BME280;38952;51.090;-1.832;2022-10-31T09:05:20;100156.81;;;21.66;57.78
51849;BME280;38952;51.090;-1.832;2022-10-31T09:07:45;100155.28;;;21.44;57.99
51849;BME280;38952;51.090;-1.832;2022-10-31T09:10:11;100153.19;;;20.83;59.35
51849;BME280;38952;51.090;-1.832;2022-10-31T09:12:36;100151.97;;;20.71;59.94
51849;BME280;38952;51.090;-1.832;2022-10-31T09:15:01;100143.66;;;20.50;60.23
51849;BME280;38952;51.090;-1.832;2022-10-31T09:17:27;100140.19;;;20.32;61.85
51849;BME280;38952;51.090;-1.832;2022-10-31T09:19:54;100129.63;;;20.26;61.12
51849;BME280;38952;51.090;-1.832;2022-10-31T09:22:19;100124.47;;;19.64;62.34
51849;BME280;38952;51.090;-1.832;2022-10-31T09:24:45;100132.38;;;18.80;64.67
51849;BME280;38952;51.090;-1.832;2022-10-31T09:27:16;100116.94;;;18.00;66.83
51849;BME280;38952;51.090;-1.832;2022-10-31T09:29:51;100109.19;;;17.71;68.37
51849;BME280;38952;51.090;-1.832;2022-10-31T09:32:16;100112.72;;;18.20;68.55
51849;BME280;38952;51.090;-1.832;2022-10-31T09:34:42;100104.50;;;18.85;66.36
51849;BME280;38952;51.090;-1.832;2022-10-31T09:37:07;100107.03;;;19.25;64.24
51849;BME280;38952;51.090;-1.832;2022-10-31T09:39:33;100095.06;;;18.77;64.16
51849;BME280;38952;51.090;-1.832;2022-10-31T09:44:47;100090.75;;;18.33;66.74
51849;BME280;38952;51.090;-1.832;2022-10-31T09:50:22;100078.97;;;17.83;67.69
51849;BME280;38952;51.090;-1.832;2022-10-31T09:53:01;100079.28;;;17.73;68.36
51849;BME280;38952;51.090;-1.832;2022-10-31T09:55:36;100068.91;;;17.87;68.40
51849;BME280;38952;51.090;-1.832;2022-10-31T09:58:03;100065.88;;;18.97;65.63
51849;BME280;38952;51.090;-1.832;2022-10-31T10:00:29;100074.00;;;19.41;62.84
51849;BME280;38952;51.090;-1.832;2022-10-31T10:06:14;100059.13;;;20.18;60.42
51849;BME280;38952;51.090;-1.832;2022-10-31T10:08:42;100052.28;;;20.36;59.98
51849;BME280;38952;51.090;-1.832;2022-10-31T10:21:53;100030.72;;;20.21;58.29
51849;BME280;38952;51.090;-1.832;2022-10-31T10:27:42;100034.69;;;22.74;56.51
51849;BME280;38952;51.090;-1.832;2022-10-31T10:30:21;100036.81;;;25.01;46.77
51849;BME280;38952;51.090;-1.832;2022-10-31T10:32:50;100038.41;;;25.25;45.96
51849;BME280;38952;51.090;-1.832;2022-10-31T10:35:39;100043.38;;;25.89;44.11
51849;BME280;38952;51.090;-1.832;2022-10-31T10:38:54;100048.13;;;25.08;43.23
51849;BME280;38952;51.090;-1.832;2022-10-31T10:41:24;100033.81;;;23.69;47.19
51849;BME280;38952;51.090;-1.832;2022-10-31T10:43:52;100015.00;;;22.99;49.28
51849;BME280;38952;51.090;-1.832;2022-10-31T10:46:40;100033.19;;;22.48;49.76
51849;BME280;38952;51.090;-1.832;2022-10-31T10:49:53;100044.22;;;23.53;48.15
51849;BME280;38952;51.090;-1.832;2022-10-31T10:52:40;100014.16;;;23.82;46.16
51849;BME280;38952;51.090;-1.832;2022-10-31T10:55:23;100014.94;;;22.79;47.01
51849;BME280;38952;51.090;-1.832;2022-10-31T10:57:56;100004.38;;;21.72;49.71
51849;BME280;38952;51.090;-1.832;2022-10-31T11:00:34;100005.56;;;21.34;51.58
51849;BME280;38952;51.090;-1.832;2022-10-31T11:03:00;100003.81;;;21.17;51.91
51849;BME280;38952;51.090;-1.832;2022-10-31T11:05:58;100015.38;;;24.63;47.86
51849;BME280;38952;51.090;-1.832;2022-10-31T11:08:27;100007.31;;;26.93;40.33
51849;BME280;38952;51.090;-1.832;2022-10-31T11:11:03;100000.00;;;24.53;43.08
51849;BME280;38952;51.090;-1.832;2022-10-31T11:13:33;99997.03;;;23.12;46.53
51849;BME280;38952;51.090;-1.832;2022-10-31T11:16:06;99996.03;;;22.89;46.82
51849;BME280;38952;51.090;-1.832;2022-10-31T11:18:36;99986.16;;;21.74;49.10
51849;BME280;38952;51.090;-1.832;2022-10-31T11:21:03;99999.66;;;21.35;51.85
51849;BME280;38952;51.090;-1.832;2022-10-31T11:23:30;99984.59;;;23.26;46.81
51849;BME280;38952;51.090;-1.832;2022-10-31T11:26:01;99978.53;;;24.14;45.94
51849;BME280;38952;51.090;-1.832;2022-10-31T11:28:28;99967.91;;;26.79;38.87
51849;BME280;38952;51.090;-1.832;2022-10-31T11:31:05;99961.47;;;28.15;36.31
51849;BME280;38952;51.090;-1.832;2022-10-31T11:33:38;99948.72;;;28.57;35.65
51849;BME280;38952;51.090;-1.832;2022-10-31T11:36:37;99950.28;;;26.37;37.19
51849;BME280;38952;51.090;-1.832;2022-10-31T11:39:05;99947.25;;;24.05;42.16
51849;BME280;38952;51.090;-1.832;2022-10-31T11:41:36;99935.00;;;24.33;43.80
51849;BME280;38952;51.090;-1.832;2022-10-31T11:46:43;99936.69;;;28.67;35.10
51849;BME280;38952;51.090;-1.832;2022-10-31T11:49:17;99926.59;;;29.24;34.50
51849;BME280;38952;51.090;-1.832;2022-10-31T11:51:47;99923.44;;;31.15;32.59
51849;BME280;38952;51.090;-1.832;2022-10-31T11:54:23;99915.84;;;32.09;30.08
51849;BME280;38952;51.090;-1.832;2022-10-31T11:56:50;99907.03;;;31.38;30.75
51849;BME280;38952;51.090;-1.832;2022-10-31T11:59:31;99906.78;;;31.63;30.19
51849;BME280;38952;51.090;-1.832;2022-10-31T12:02:18;99940.69;;;31.63;28.78
51849;BME280;38952;51.090;-1.832;2022-10-31T12:04:49;99904.47;;;31.50;29.08
51849;BME280;38952;51.090;-1.832;2022-10-31T12:07:15;99874.56;;;31.53;29.12
51849;BME280;38952;51.090;-1.832;2022-10-31T12:09:42;99881.66;;;32.50;29.66
51849;BME280;38952;51.090;-1.832;2022-10-31T12:15:11;99859.09;;;33.74;26.15
51849;BME280;38952;51.090;-1.832;2022-10-31T12:18:17;99856.03;;;32.10;27.63
51849;BME280;38952;51.090;-1.832;2022-10-31T12:40:35;99778.41;;;34.12;24.21
51849;BME280;38952;51.090;-1.832;2022-10-31T12:45:55;99751.03;;;33.36;26.97
51849;BME280;38952;51.090;-1.832;2022-10-31T12:51:26;99737.44;;;31.48;27.19
51849;BME280;38952;51.090;-1.832;2022-10-31T12:57:30;99726.16;;;28.48;31.59
51849;BME280;38952;51.090;-1.832;2022-10-31T12:59:42;99718.09;;;26.43;34.39
51849;BME280;38952;51.090;-1.832;2022-10-31T13:02:21;99696.00;;;25.00;36.93
51849;BME280;38952;51.090;-1.832;2022-10-31T13:08:06;99676.06;;;23.17;41.54
51849;BME280;38952;51.090;-1.832;2022-10-31T13:10:50;99676.56;;;23.46;41.56
51849;BME280;38952;51.090;-1.832;2022-10-31T13:13:41;99655.63;;;23.83;41.32
51849;BME280;38952;51.090;-1.832;2022-10-31T13:16:17;99675.63;;;24.08;41.42
51849;BME280;38952;51.090;-1.832;2022-10-31T13:18:48;99666.41;;;23.84;41.71
51849;BME280;38952;51.090;-1.832;2022-10-31T13:21:21;99655.25;;;23.58;42.44
51849;BME280;38952;51.090;-1.832;2022-10-31T13:23:50;99652.25;;;23.24;43.76
51849;BME280;38952;51.090;-1.832;2022-10-31T13:29:26;99638.44;;;22.13;45.51
51849;BME280;38952;51.090;-1.832;2022-10-31T13:31:53;99629.28;;;21.45;47.91
51849;BME280;38952;51.090;-1.832;2022-10-31T13:34:41;99628.97;;;21.03;48.82
51849;BME280;38952;51.090;-1.832;2022-10-31T13:45:21;99597.03;;;19.75;53.79
51849;BME280;38952;51.090;-1.832;2022-10-31T13:47:59;99601.44;;;19.39;55.23
51849;BME280;38952;51.090;-1.832;2022-10-31T13:50:30;99601.13;;;18.94;55.99
51849;BME280;38952;51.090;-1.832;2022-10-31T13:53:18;99589.97;;;18.48;58.18
51849;BME280;38952;51.090;-1.832;2022-10-31T13:55:47;99579.06;;;18.10;60.67
51849;BME280;38952;51.090;-1.832;2022-10-31T13:58:27;99571.94;;;17.79;62.17
51849;BME280;38952;51.090;-1.832;2022-10-31T14:03:29;99563.97;;;17.48;64.33
51849;BME280;38952;51.090;-1.832;2022-10-31T14:05:56;99553.19;;;17.34;65.10
51849;BME280;38952;51.090;-1.832;2022-10-31T14:08:23;99557.50;;;17.14;67.16
51849;BME280;38952;51.090;-1.832;2022-10-31T14:10:51;99545.06;;;16.90;67.77
51849;BME280;38952;51.090;-1.832;2022-10-31T14:13:33;99536.34;;;16.62;68.59
51849;BME280;38952;51.090;-1.832;2022-10-31T14:16:16;99525.66;;;16.34;69.19
51849;BME280;38952;51.090;-1.832;2022-10-31T14:18:48;99532.38;;;16.15;69.60
51849;BME280;38952;51.090;-1.832;2022-10-31T14:23:53;99520.50;;;15.97;71.17
51849;BME280;38952;51.090;-1.832;2022-10-31T14:28:49;99506.09;;;15.92;71.25
51849;BME280;38952;51.090;-1.832;2022-10-31T14:39:33;99477.16;;;15.36;75.19
51849;BME280;38952;51.090;-1.832;2022-10-31T14:50:56;99422.34;;;15.17;78.47
51849;BME280;38952;51.090;-1.832;2022-10-31T14:53:33;99415.22;;;15.16;78.58
51849;BME280;38952;51.090;-1.832;2022-10-31T14:55:59;99403.22;;;15.12;79.07
51849;BME280;38952;51.090;-1.832;2022-10-31T14:58:45;99411.66;;;15.07;79.90